Time;durP1;ratioP1;P1;durP2;ratioP2;P2;SDS_P1;SDS_P2;PMS_P1;PMS_P2;Temp;Humidity;BMP_temperature;BMP_pressure;BME280_temperature;BME280_humidity;BME280_pressure;Samples;Min_cycle;Max_cycle;Signal;HPM_P1;HPM_P2
2023/08/19 00:01:20;;;;;;;0.98;0.98;;;;;;;26.19;68.46;100681.28;6316086;23;20057;-87
2023/08/19 00:03:51;;;;;;;1.50;1.40;;;;;;;26.18;68.52;100672.38;6316160;23;20100;-88
2023/08/19 00:06:39;;;;;;;1.40;1.30;;;;;;;26.16;68.59;100668.97;6318747;23;20422;-87
2023/08/19 00:09:10;;;;;;;1.73;1.33;;;;;;;26.13;69.05;100673.78;6344394;23;20036;-89
2023/08/19 00:11:40;;;;;;;1.02;0.80;;;;;;;26.12;68.63;100675.63;6316752;23;20065;-88
2023/08/19 00:14:11;;;;;;;4.13;2.08;;;;;;;26.13;69.09;100673.78;6341097;23;20018;-88
2023/08/19 00:16:43;;;;;;;1.65;0.98;;;;;;;26.13;68.76;100679.16;6341367;23;20006;-89
2023/08/19 00:19:13;;;;;;;1.77;1.50;;;;;;;26.13;68.79;100676.47;6316911;23;20017;-89
2023/08/19 00:21:44;;;;;;;0.70;0.70;;;;;;;26.13;68.91;100673.78;6318108;23;20014;-87
2023/08/19 00:24:14;;;;;;;0.60;0.60;;;;;;;26.12;68.83;100674.78;6315067;23;20009;-88
2023/08/19 00:26:45;;;;;;;1.88;1.63;;;;;;;26.10;68.53;100668.69;6317413;23;20006;-89
2023/08/19 00:29:15;;;;;;;0.77;0.77;;;;;;;26.10;68.95;100677.63;6343542;23;20008;-89
2023/08/19 00:31:45;;;;;;;2.30;1.27;;;;;;;26.06;68.76;100674.34;6342584;23;20076;-88
2023/08/19 00:34:16;;;;;;;1.10;1.00;;;;;;;26.05;68.94;100675.34;6317769;23;20064;-89
2023/08/19 00:36:47;;;;;;;0.90;0.90;;;;;;;26.04;68.51;100673.63;6317608;23;19998;-88
2023/08/19 00:39:18;;;;;;;1.02;0.95;;;;;;;26.02;68.96;100670.22;6319200;23;20010;-88
2023/08/19 00:41:48;;;;;;;2.70;2.10;;;;;;;26.01;68.61;100675.75;6355980;23;19993;-90
2023/08/19 00:44:19;;;;;;;1.83;1.00;;;;;;;25.98;68.86;100674.22;6327355;23;20021;-88
2023/08/19 00:46:49;;;;;;;1.13;1.02;;;;;;;25.97;68.82;100664.44;6318237;23;20021;-89
2023/08/19 00:49:20;;;;;;;0.90;0.85;;;;;;;25.94;69.06;100659.34;6319937;23;20036;-89
2023/08/19 00:51:51;;;;;;;2.05;1.65;;;;;;;25.94;68.87;100662.03;6316570;23;20067;-87
2023/08/19 00:54:21;;;;;;;1.27;1.15;;;;;;;25.91;68.84;100655.13;6317111;23;20017;-89
2023/08/19 00:56:52;;;;;;;0.30;0.30;;;;;;;25.89;68.68;100661.63;6351793;23;20001;-88
2023/08/19 00:59:22;;;;;;;2.22;0.73;;;;;;;25.88;68.63;100654.56;6317130;23;20010;-88
2023/08/19 01:01:53;;;;;;;0.90;0.85;;;;;;;25.85;68.95;100649.47;6317519;23;20186;-89
2023/08/19 01:04:24;;;;;;;0.68;0.68;;;;;;;25.83;68.68;100646.06;6317200;23;20491;-88
2023/08/19 01:07:11;;;;;;;1.45;1.35;;;;;;;25.80;68.96;100649.06;6342199;23;20069;-89
2023/08/19 01:10:03;;;;;;;0.40;0.40;;;;;;;25.77;68.70;100642.97;6317927;23;20005;-88
2023/08/19 01:12:45;;;;;;;0.80;0.75;;;;;;;25.74;68.67;100648.59;6317337;23;20020;-86
2023/08/19 01:15:16;;;;;;;3.55;1.40;;;;;;;25.71;68.93;100648.91;6319240;23;20025;-89
2023/08/19 01:17:48;;;;;;;1.55;1.05;;;;;;;25.72;68.92;100660.50;6318012;23;20009;-86
2023/08/19 01:20:20;;;;;;;8.05;1.92;;;;;;;25.70;68.68;100651.75;6317081;23;20010;-87
2023/08/19 01:23:11;;;;;;;0.70;0.63;;;;;;;25.65;68.90;100648.63;6342155;23;20010;-88
2023/08/19 01:25:42;;;;;;;0.63;0.60;;;;;;;25.58;69.39;100659.94;6317203;23;20013;-88
2023/08/19 01:28:14;;;;;;;1.60;1.05;;;;;;;25.57;69.18;100660.09;6318220;23;20006;-88
2023/08/19 01:30:44;;;;;;;0.73;0.73;;;;;;;25.54;68.72;100652.31;6343242;23;20081;-87
2023/08/19 01:33:15;;;;;;;0.70;0.70;;;;;;;25.50;69.26;100656.25;6317000;23;20044;-88
2023/08/19 01:35:53;;;;;;;0.75;0.75;;;;;;;25.44;69.57;100650.47;6318305;23;20012;-88
2023/08/19 01:38:51;;;;;;;1.20;1.10;;;;;;;25.46;69.21;100647.63;6342681;23;20341;-89
2023/08/19 01:41:22;;;;;;;5.75;2.03;;;;;;;25.44;69.05;100663.06;6316875;23;20009;-89
2023/08/19 01:43:54;;;;;;;1.35;1.25;;;;;;;25.40;69.06;100656.25;6317167;23;20455;-88
2023/08/19 01:46:25;;;;;;;2.10;1.90;;;;;;;25.41;68.98;100657.94;6317418;23;20005;-88
2023/08/19 01:48:55;;;;;;;1.50;0.90;;;;;;;25.34;69.61;100660.31;6317808;23;20021;-88
2023/08/19 01:51:30;;;;;;;0.95;0.95;;;;;;;25.34;69.42;100660.31;6316220;23;20336;-89
2023/08/19 01:54:00;;;;;;;1.00;0.90;;;;;;;25.33;69.37;100657.78;6315777;23;20036;-88
2023/08/19 01:56:31;;;;;;;0.90;0.90;;;;;;;25.32;69.24;100656.06;6317555;23;20001;-87
2023/08/19 01:59:01;;;;;;;0.73;0.70;;;;;;;25.29;69.22;100662.56;6314675;23;20073;-88
2023/08/19 02:01:31;;;;;;;1.45;1.05;;;;;;;25.11;70.58;100657.88;6315503;23;20529;-88
2023/08/19 02:04:02;;;;;;;1.30;0.98;;;;;;;25.17;69.85;100661.84;6341116;23;20191;-89
2023/08/19 02:06:33;;;;;;;1.23;1.00;;;;;;;25.20;69.81;100652.66;6316979;23;20013;-87
2023/08/19 02:09:03;;;;;;;0.80;0.77;;;;;;;25.19;69.43;100654.50;6315768;23;20009;-87
2023/08/19 02:11:34;;;;;;;0.85;0.75;;;;;;;25.19;69.50;100650.97;6315374;23;20033;-88
2023/08/19 02:14:04;;;;;;;0.75;0.75;;;;;;;25.14;69.86;100646.88;6317003;23;20289;-90
2023/08/19 02:16:34;;;;;;;2.30;1.67;;;;;;;25.14;69.56;100652.25;6317382;23;20009;-87
2023/08/19 02:19:05;;;;;;;1.00;0.80;;;;;;;25.10;69.52;100645.44;6317798;23;20398;-88
2023/08/19 02:21:35;;;;;;;0.82;0.82;;;;;;;25.11;69.65;100647.13;6316859;23;20005;-87
2023/08/19 02:24:06;;;;;;;1.65;1.55;;;;;;;25.09;69.30;100643.72;6317427;23;20005;-88
2023/08/19 02:26:37;;;;;;;1.85;1.60;;;;;;;25.09;69.36;100648.25;6341611;23;20525;-89
2023/08/19 02:29:07;;;;;;;0.98;0.93;;;;;;;25.02;69.85;100637.22;6317644;23;20013;-89
2023/08/19 02:31:38;;;;;;;1.30;1.20;;;;;;;25.00;69.70;100639.19;6316863;23;20061;-88
2023/08/19 02:34:08;;;;;;;0.63;0.63;;;;;;;24.99;69.70;100643.72;6316524;23;20017;-89
2023/08/19 02:36:39;;;;;;;1.75;1.25;;;;;;;24.98;70.05;100635.81;6316135;23;20072;-87
2023/08/19 02:39:09;;;;;;;0.60;0.60;;;;;;;24.93;70.25;100630.00;6317412;23;20012;-88
2023/08/19 02:41:40;;;;;;;0.82;0.80;;;;;;;24.92;69.64;100621.09;6350601;23;20013;-88
2023/08/19 02:44:10;;;;;;;0.82;0.82;;;;;;;24.90;69.75;100623.06;6320670;23;20010;-87
2023/08/19 02:46:41;;;;;;;1.45;0.80;;;;;;;24.85;70.11;100617.28;6293391;23;20284;-89
2023/08/19 02:49:12;;;;;;;0.47;0.47;;;;;;;24.85;69.76;100613.72;6315872;23;20013;-88
2023/08/19 02:51:42;;;;;;;1.10;1.00;;;;;;;24.83;69.61;100611.19;6315812;23;20034;-88
2023/08/19 02:54:13;;;;;;;0.90;0.60;;;;;;;24.82;69.83;100606.81;6316435;23;20001;-88
2023/08/19 02:56:43;;;;;;;1.92;1.80;;;;;;;24.77;69.94;100607.22;6341566;23;20016;-89
2023/08/19 02:59:14;;;;;;;0.60;0.60;;;;;;;24.75;70.06;100622.59;6316872;23;20009;-87
2023/08/19 03:01:44;;;;;;;0.80;0.80;;;;;;;24.76;69.86;100621.63;6313172;23;20017;-89
2023/08/19 03:04:15;;;;;;;3.00;1.90;;;;;;;24.70;70.12;100627.53;6313944;23;20013;-89
2023/08/19 03:06:45;;;;;;;0.30;0.30;;;;;;;24.73;69.83;100626.41;6339619;23;20044;-89
2023/08/19 03:09:15;;;;;;;0.50;0.50;;;;;;;24.70;69.75;100622.16;6314878;23;20009;-88
2023/08/19 03:11:46;;;;;;;3.47;1.20;;;;;;;24.71;69.55;100618.50;6315125;23;20044;-88
2023/08/19 03:14:16;;;;;;;0.52;0.50;;;;;;;24.69;69.96;100615.09;6315489;23;20009;-89
2023/08/19 03:16:47;;;;;;;0.52;0.52;;;;;;;24.67;69.65;100612.56;6339472;23;20001;-89
2023/08/19 03:19:17;;;;;;;1.35;1.25;;;;;;;24.66;69.62;100610.84;6313502;23;20005;-89
2023/08/19 03:21:48;;;;;;;0.40;0.40;;;;;;;24.65;69.61;100608.31;6348975;23;20343;-87
2023/08/19 03:24:18;;;;;;;0.75;0.75;;;;;;;24.64;69.80;100607.44;6315178;23;20390;-88
2023/08/19 03:26:49;;;;;;;1.02;0.93;;;;;;;24.65;69.57;100613.66;6315982;23;20009;-88
2023/08/19 03:29:19;;;;;;;0.95;0.88;;;;;;;24.67;69.59;100609.03;6359863;23;20342;-89
2023/08/19 03:31:50;;;;;;;0.40;0.40;;;;;;;24.59;69.72;100603.44;6336661;23;20108;-89
2023/08/19 03:34:20;;;;;;;0.70;0.63;;;;;;;24.61;69.46;100601.50;6336907;23;20009;-87
2023/08/19 03:36:50;;;;;;;14.70;2.70;;;;;;;24.61;69.62;100596.13;6330811;23;20040;-88
2023/08/19 03:39:21;;;;;;;0.50;0.50;;;;;;;24.61;69.39;100602.34;6353377;23;20016;-88
2023/08/19 03:41:51;;;;;;;0.40;0.40;;;;;;;24.60;69.51;100599.78;6354669;23;20016;-88
2023/08/19 03:44:21;;;;;;;0.63;0.63;;;;;;;24.59;69.32;100600.78;6319355;23;20029;-87
2023/08/19 03:46:52;;;;;;;1.45;0.98;;;;;;;24.54;69.38;100600.34;6317492;23;20036;-88
2023/08/19 03:49:22;;;;;;;0.52;0.52;;;;;;;24.53;69.64;100604.88;6315710;23;20005;-88
2023/08/19 03:51:53;;;;;;;1.83;1.17;;;;;;;24.52;69.62;100603.16;6315326;23;20291;-88
2023/08/19 03:54:23;;;;;;;0.43;0.43;;;;;;;24.52;69.43;100608.53;6316260;23;20006;-89
2023/08/19 03:56:53;;;;;;;0.40;0.40;;;;;;;24.50;69.41;100616.69;6315849;23;20016;-88
2023/08/19 03:59:24;;;;;;;0.93;0.85;;;;;;;24.49;69.52;100614.16;6314470;23;20013;-88
2023/08/19 04:01:54;;;;;;;1.13;0.85;;;;;;;24.48;69.59;100616.00;6336234;23;20404;-88
2023/08/19 04:04:25;;;;;;;1.77;0.75;;;;;;;24.49;69.45;100615.03;6315412;23;20757;-88
2023/08/19 04:06:55;;;;;;;2.45;1.48;;;;;;;24.50;69.30;100613.19;6317228;23;20101;-88
2023/08/19 04:09:25;;;;;;;0.35;0.35;;;;;;;24.46;69.16;100615.28;6316745;23;20088;-87
2023/08/19 04:11:56;;;;;;;0.65;0.65;;;;;;;24.45;69.56;100612.75;6314277;23;20605;-88
2023/08/19 04:14:26;;;;;;;0.90;0.57;;;;;;;24.45;69.51;100616.25;6340139;23;20069;-87
2023/08/19 04:16:56;;;;;;;2.22;1.55;;;;;;;24.44;69.41;100611.88;6317806;23;20422;-88
2023/08/19 04:19:27;;;;;;;0.63;0.50;;;;;;;24.42;69.40;100608.47;6339464;23;20393;-88
2023/08/19 04:21:57;;;;;;;0.90;0.52;;;;;;;24.40;69.26;100610.47;6339845;23;20215;-88
2023/08/19 04:24:28;;;;;;;0.82;0.77;;;;;;;24.41;69.17;100612.16;6315945;23;20155;-87
2023/08/19 04:27:02;;;;;;;0.77;0.77;;;;;;;24.40;69.44;100617.63;6315892;23;20459;-88
2023/08/19 04:29:33;;;;;;;0.50;0.50;;;;;;;24.40;69.46;100614.97;6316063;23;20013;-88
2023/08/19 04:32:03;;;;;;;0.63;0.60;;;;;;;24.38;69.37;100616.94;6339324;23;20060;-88
2023/08/19 04:34:34;;;;;;;0.50;0.50;;;;;;;24.38;69.33;100615.09;6339315;23;20017;-87
2023/08/19 04:37:04;;;;;;;0.30;0.30;;;;;;;24.38;69.51;100617.78;6340831;23;19997;-88
2023/08/19 04:39:36;;;;;;;2.60;1.20;;;;;;;24.37;69.49;100621.44;6340171;23;20006;-88
2023/08/19 04:42:07;;;;;;;1.13;1.05;;;;;;;24.34;69.52;100621.69;6375327;23;20009;-87
2023/08/19 04:44:37;;;;;;;0.75;0.75;;;;;;;24.31;69.49;100622.81;6315155;23;20059;-87
2023/08/19 04:47:09;;;;;;;0.43;0.43;;;;;;;24.30;69.22;100622.97;6315369;23;20590;-88
2023/08/19 04:49:39;;;;;;;1.83;1.33;;;;;;;24.29;69.42;100621.25;6315323;23;20005;-88
2023/08/19 04:52:09;;;;;;;3.40;1.65;;;;;;;24.23;69.44;100630.69;6374096;23;20504;-88
2023/08/19 04:54:40;;;;;;;0.38;0.38;;;;;;;24.27;69.23;100625.91;6340519;23;20130;-88
2023/08/19 04:57:11;;;;;;;0.70;0.63;;;;;;;24.27;69.27;100617.88;6339988;23;20013;-88
2023/08/19 04:59:41;;;;;;;0.40;0.40;;;;;;;24.27;69.44;100624.09;6341376;23;20005;-89
2023/08/19 05:02:11;;;;;;;0.50;0.50;;;;;;;24.29;69.51;100623.94;6347823;23;20009;-89
2023/08/19 05:04:42;;;;;;;0.47;0.47;;;;;;;24.27;69.40;100621.41;6314359;23;20005;-88
2023/08/19 05:07:12;;;;;;;1.10;0.30;;;;;;;24.30;69.45;100614.91;6313402;23;20060;-89
2023/08/19 05:09:42;;;;;;;1.63;1.33;;;;;;;24.29;69.22;100613.22;6314649;23;20013;-87
2023/08/19 05:12:13;;;;;;;0.68;0.68;;;;;;;24.30;69.51;100620.28;6312960;23;20010;-88
2023/08/19 05:14:43;;;;;;;4.97;1.30;;;;;;;24.27;69.76;100620.53;6314462;23;20085;-87
2023/08/19 05:17:14;;;;;;;0.47;0.47;;;;;;;24.27;69.73;100626.78;6348094;23;20005;-88
2023/08/19 05:19:45;;;;;;;0.60;0.60;;;;;;;24.27;69.55;100628.59;6338946;23;20009;-88
2023/08/19 05:22:15;;;;;;;0.90;0.90;;;;;;;24.27;69.66;100625.91;6311529;23;20044;-87
2023/08/19 05:24:45;;;;;;;0.60;0.60;;;;;;;24.29;69.69;100632.00;6334683;23;20187;-87
2023/08/19 05:27:16;;;;;;;1.63;0.98;;;;;;;24.34;69.72;100637.78;6311069;23;20014;-88
2023/08/19 05:29:46;;;;;;;0.40;0.40;;;;;;;24.29;69.70;100632.00;6312098;23;20012;-88
2023/08/19 05:32:16;;;;;;;0.40;0.40;;;;;;;24.32;69.83;100645.13;6344126;23;20036;-89
2023/08/19 05:34:47;;;;;;;0.47;0.47;;;;;;;24.30;70.04;100631.84;6338094;23;20050;-89
2023/08/19 05:37:17;;;;;;;0.20;0.20;;;;;;;24.31;69.74;100636.22;6348068;23;20055;-89
2023/08/19 05:39:49;;;;;;;0.50;0.50;;;;;;;24.36;69.90;100641.19;6337327;23;20060;-89
2023/08/19 05:42:19;;;;;;;6.63;1.42;;;;;;;24.40;69.48;100633.72;6313630;23;20005;-88
2023/08/19 05:44:50;;;;;;;0.57;0.57;;;;;;;24.34;70.15;100641.34;6317923;23;20028;-89
2023/08/19 05:47:20;;;;;;;0.47;0.47;;;;;;;24.38;70.07;100638.41;6337628;23;20013;-88
2023/08/19 05:49:51;;;;;;;0.82;0.82;;;;;;;24.41;70.20;100648.84;6316291;23;20009;-88
2023/08/19 05:52:21;;;;;;;0.47;0.47;;;;;;;24.41;70.35;100649.72;6340019;23;20061;-88
2023/08/19 05:54:51;;;;;;;2.00;1.27;;;;;;;24.41;70.68;100649.72;6312446;23;20009;-88
2023/08/19 05:57:23;;;;;;;0.82;0.82;;;;;;;24.44;70.67;100648.59;6310704;23;20231;-88
2023/08/19 05:59:53;;;;;;;0.73;0.73;;;;;;;24.45;70.73;100655.66;6309162;23;20017;-90
2023/08/19 06:02:24;;;;;;;0.68;0.68;;;;;;;24.47;70.43;100659.88;6311846;23;20121;-88
2023/08/19 06:04:54;;;;;;;0.85;0.85;;;;;;;24.49;70.77;100660.63;6335510;23;20012;-89
2023/08/19 06:07:26;;;;;;;0.40;0.40;;;;;;;24.52;70.48;100659.50;6311699;23;20014;-88
2023/08/19 06:09:57;;;;;;;2.13;1.13;;;;;;;24.44;72.85;100665.50;6311446;23;20013;-88
2023/08/19 06:12:27;;;;;;;0.55;0.55;;;;;;;24.49;71.08;100651.69;6334686;23;20329;-89
2023/08/19 06:14:57;;;;;;;2.83;1.17;;;;;;;24.48;71.39;100661.59;6334581;23;20005;-91
2023/08/19 06:17:28;;;;;;;0.47;0.47;;;;;;;24.51;70.90;100655.94;6356213;23;20089;-89
2023/08/19 06:19:58;;;;;;;0.93;0.93;;;;;;;24.56;71.07;100660.91;6318756;23;20062;-87
2023/08/19 06:22:28;;;;;;;1.33;1.23;;;;;;;24.55;71.44;100661.03;6339420;23;20460;-87
2023/08/19 06:24:59;;;;;;;1.08;1.08;;;;;;;24.58;70.87;100668.84;6311482;23;20459;-88
2023/08/19 06:27:29;;;;;;;11.60;2.75;;;;;;;24.59;71.14;100676.75;6348819;23;20013;-89
2023/08/19 06:29:59;;;;;;;0.93;0.93;;;;;;;24.65;70.85;100678.88;6339163;23;20020;-89
2023/08/19 06:32:30;;;;;;;0.95;0.88;;;;;;;24.47;72.21;100688.53;6313816;23;20010;-92
2023/08/19 06:35:03;;;;;;;1.33;1.23;;;;;;;24.56;71.46;100673.47;6338541;23;20013;-88
2023/08/19 06:37:39;;;;;;;0.50;0.50;;;;;;;24.66;70.88;100679.75;6314648;23;20547;-89
2023/08/19 06:40:12;;;;;;;0.82;0.80;;;;;;;24.46;73.00;100686.84;6310763;23;20067;-89
2023/08/19 06:42:43;;;;;;;0.38;0.38;;;;;;;24.43;73.05;100685.25;6336183;23;20037;-89
2023/08/19 06:45:15;;;;;;;10.40;2.00;;;;;;;24.52;71.84;100680.94;6344803;23;20013;-88
2023/08/19 06:47:49;;;;;;;1.23;1.15;;;;;;;24.64;71.52;100685.22;6327650;23;20016;-88
2023/08/19 06:50:20;;;;;;;12.73;2.28;;;;;;;24.70;71.34;100688.41;6334496;23;20009;-88
2023/08/19 06:52:51;;;;;;;1.63;1.52;;;;;;;24.71;71.13;100693.63;6335077;23;20013;-87
2023/08/19 06:55:22;;;;;;;0.68;0.68;;;;;;;24.72;71.48;100689.97;6312097;23;20072;-88
2023/08/19 06:58:03;;;;;;;2.63;1.75;;;;;;;24.77;71.32;100689.56;6348505;23;19990;-88
2023/08/19 07:00:35;;;;;;;1.10;1.00;;;;;;;24.77;71.46;100698.44;6361412;23;20074;-89
2023/08/19 07:03:06;;;;;;;1.13;0.80;;;;;;;24.80;71.05;100695.50;6339390;23;20017;-89
2023/08/19 07:05:38;;;;;;;0.60;0.60;;;;;;;24.82;71.25;100698.91;6339332;23;20001;-89
2023/08/19 07:08:11;;;;;;;0.70;0.70;;;;;;;24.85;71.05;100699.59;6398594;23;19998;-89
2023/08/19 07:10:41;;;;;;;1.77;1.20;;;;;;;24.88;71.09;100699.34;6337676;23;20015;-91
2023/08/19 07:13:12;;;;;;;0.68;0.45;;;;;;;24.86;71.18;100686.06;6337095;23;20017;-90
2023/08/19 07:15:48;;;;;;;1.88;1.20;;;;;;;24.92;71.08;100690.00;6343445;23;20152;-88
2023/08/19 07:18:20;;;;;;;1.73;0.85;;;;;;;24.96;70.92;100696.81;6336389;23;20253;-88
2023/08/19 07:20:52;;;;;;;2.78;2.15;;;;;;;24.95;71.37;100701.34;6333478;23;20020;-88
2023/08/19 07:23:23;;;;;;;1.58;0.98;;;;;;;25.04;70.89;100688.09;6336443;23;20059;-88
2023/08/19 07:25:54;;;;;;;0.55;0.55;;;;;;;24.99;71.25;100697.41;6312114;23;20012;-89
2023/08/19 07:28:25;;;;;;;0.50;0.50;;;;;;;25.06;70.92;100697.72;6310507;23;20035;-89
2023/08/19 07:30:55;;;;;;;2.33;2.05;;;;;;;25.05;71.48;100692.47;6335625;23;20032;-88
2023/08/19 07:33:26;;;;;;;0.98;0.98;;;;;;;25.10;71.56;100699.13;6335619;23;20196;-89
2023/08/19 07:35:57;;;;;;;0.60;0.60;;;;;;;25.14;71.24;100697.00;6334707;23;20351;-87
2023/08/19 07:38:28;;;;;;;0.35;0.35;;;;;;;25.24;70.92;100705.09;6312116;23;20036;-89
2023/08/19 07:40:59;;;;;;;0.77;0.50;;;;;;;25.27;70.69;100699.44;6345658;23;20348;-88
2023/08/19 07:43:29;;;;;;;1.40;1.30;;;;;;;25.33;70.12;100695.38;6309256;23;20033;-88
2023/08/19 07:46:00;;;;;;;0.55;0.55;;;;;;;25.36;71.23;100700.47;6310700;23;20313;-88
2023/08/19 07:48:31;;;;;;;0.85;0.85;;;;;;;25.37;71.66;100705.69;6311430;23;20014;-88
2023/08/19 07:51:02;;;;;;;0.30;0.30;;;;;;;25.46;71.10;100704.03;6314444;23;20009;-88
2023/08/19 07:53:32;;;;;;;0.95;0.93;;;;;;;25.44;71.11;100704.19;6368395;23;20544;-87
2023/08/19 07:56:04;;;;;;;0.55;0.55;;;;;;;25.51;71.17;100707.16;6307992;23;20071;-87
2023/08/19 07:58:36;;;;;;;0.73;0.73;;;;;;;25.57;70.92;100705.75;6368303;23;20040;-87
2023/08/19 08:01:06;;;;;;;0.70;0.70;;;;;;;25.66;70.66;100712.94;6306635;23;20065;-87
2023/08/19 08:03:39;;;;;;;0.80;0.60;;;;;;;25.68;71.05;100712.84;6331342;23;20709;-87
2023/08/19 08:06:11;;;;;;;0.50;0.50;;;;;;;25.62;70.92;100727.66;6307516;23;20108;-87
2023/08/19 08:08:41;;;;;;;1.00;0.93;;;;;;;25.70;70.87;100733.19;6338988;23;20006;-87
2023/08/19 08:11:12;;;;;;;0.65;0.65;;;;;;;25.73;70.92;100743.66;6374150;23;20732;-88
2023/08/19 08:13:42;;;;;;;1.55;1.27;;;;;;;25.82;70.62;100741.13;6314113;23;20322;-87
2023/08/19 08:16:14;;;;;;;1.17;0.95;;;;;;;25.84;70.71;100739.13;6314256;23;20455;-88
2023/08/19 08:18:44;;;;;;;0.70;0.70;;;;;;;25.82;70.98;100736.59;6314224;23;20056;-87
2023/08/19 08:21:15;;;;;;;2.08;0.88;;;;;;;25.89;70.80;100743.09;6350314;23;20399;-88
2023/08/19 08:23:45;;;;;;;0.77;0.75;;;;;;;25.93;71.07;100749.03;6315971;23;20056;-88
2023/08/19 08:26:16;;;;;;;1.98;0.77;;;;;;;25.96;71.11;100748.75;6315233;23;20009;-87
2023/08/19 08:28:47;;;;;;;0.30;0.30;;;;;;;26.01;71.01;100751.03;6308223;23;20010;-87
2023/08/19 08:31:17;;;;;;;0.30;0.30;;;;;;;26.03;71.01;100747.19;6332865;23;20009;-88
2023/08/19 08:33:48;;;;;;;0.30;0.30;;;;;;;26.10;71.11;100752.91;6330875;23;20755;-88
2023/08/19 08:36:18;;;;;;;0.40;0.40;;;;;;;26.13;70.68;100759.81;6332819;23;20017;-88
2023/08/19 08:38:48;;;;;;;1.08;0.98;;;;;;;26.16;70.90;100757.69;6333404;23;20503;-89
2023/08/19 08:41:20;;;;;;;1.75;1.40;;;;;;;26.24;70.74;100763.22;6331212;23;20352;-88
2023/08/19 08:43:52;;;;;;;0.20;0.20;;;;;;;26.30;71.31;100769.00;6372219;23;20033;-87
2023/08/19 08:46:26;;;;;;;0.40;0.40;;;;;;;26.33;70.78;100766.03;6311315;23;20067;-88
2023/08/19 08:48:58;;;;;;;0.68;0.68;;;;;;;26.39;70.65;100769.00;6309274;23;20084;-89
2023/08/19 08:51:28;;;;;;;0.38;0.38;;;;;;;26.38;71.14;100769.13;6333155;23;20088;-89
2023/08/19 08:54:00;;;;;;;1.13;1.00;;;;;;;26.43;70.45;100766.00;6333066;23;20045;-88
2023/08/19 08:56:31;;;;;;;0.50;0.50;;;;;;;26.52;70.69;100773.22;6370325;23;20028;-88
2023/08/19 08:59:02;;;;;;;16.10;1.85;;;;;;;26.55;70.58;100767.56;6309298;23;20052;-88
2023/08/19 09:01:35;;;;;;;1.77;1.27;;;;;;;26.58;70.85;100780.69;6310710;23;20532;-87
2023/08/19 09:04:08;;;;;;;1.23;1.17;;;;;;;26.59;70.12;100779.72;6334473;23;20006;-87
2023/08/19 09:06:42;;;;;;;0.45;0.45;;;;;;;26.65;70.71;100787.19;6333964;23;20278;-87
2023/08/19 09:09:13;;;;;;;0.50;0.50;;;;;;;26.67;70.26;100790.59;6369117;23;20083;-87
2023/08/19 09:11:47;;;;;;;0.47;0.47;;;;;;;26.74;70.38;100781.94;6309516;23;20096;-88
2023/08/19 09:14:26;;;;;;;1.30;1.15;;;;;;;26.82;70.53;100788.34;6336153;23;20031;-90
2023/08/19 09:16:57;;;;;;;2.40;2.20;;;;;;;26.86;69.55;100783.50;6313125;23;20009;-90
2023/08/19 09:19:27;;;;;;;1.40;1.20;;;;;;;26.96;69.45;100789.72;6378070;23;20016;-89
2023/08/19 09:21:58;;;;;;;1.17;0.90;;;;;;;27.02;69.58;100794.50;6310243;23;20515;-89
2023/08/19 09:24:28;;;;;;;0.70;0.63;;;;;;;27.11;69.84;100797.28;6336746;23;20017;-86
2023/08/19 09:26:59;;;;;;;0.68;0.68;;;;;;;27.17;69.49;100796.69;6318808;23;20009;-90
2023/08/19 09:29:30;;;;;;;0.50;0.50;;;;;;;27.24;69.77;100808.56;6314644;23;20269;-89
2023/08/19 09:32:02;;;;;;;0.65;0.60;;;;;;;27.33;68.91;100802.28;6334454;23;20345;-88
2023/08/19 09:34:33;;;;;;;0.73;0.73;;;;;;;27.39;68.81;100808.94;6311574;23;20029;-88
2023/08/19 09:37:04;;;;;;;0.88;0.70;;;;;;;27.46;68.75;100803.84;6321150;23;20324;-88
2023/08/19 09:39:34;;;;;;;0.93;0.85;;;;;;;27.51;68.47;100811.47;6322740;23;20012;-88
2023/08/19 09:42:08;;;;;;;0.40;0.40;;;;;;;27.58;68.18;100818.78;6340482;23;20033;-88
2023/08/19 09:44:40;;;;;;;0.50;0.50;;;;;;;27.59;65.72;100820.47;6335339;23;20009;-89
2023/08/19 09:47:11;;;;;;;;;;;;;;;27.68;64.18;100831.34;6337475;23;20065;-89
2023/08/19 09:49:41;;;;;;;0.45;0.45;;;;;;;27.73;65.06;100826.34;6325888;23;19933;-89
2023/08/19 09:52:17;;;;;;;0.77;0.77;;;;;;;27.79;65.46;100833.84;6347035;23;20013;-90
2023/08/19 09:54:52;;;;;;;2.83;1.30;;;;;;;27.80;64.14;100835.56;6352696;23;20009;-89
2023/08/19 09:57:49;;;;;;;8.15;2.58;;;;;;;27.84;64.54;100830.69;6343061;23;20013;-89
2023/08/19 10:00:21;;;;;;;1.92;1.23;;;;;;;27.85;64.05;100835.09;6385484;23;20045;-89
2023/08/19 10:02:51;;;;;;;0.30;0.30;;;;;;;27.97;64.52;100833.84;6361868;23;20718;-88
2023/08/19 10:05:25;;;;;;;1.00;0.77;;;;;;;27.99;65.31;100839.09;6319609;23;20005;-88
2023/08/19 10:08:04;;;;;;;0.70;0.70;;;;;;;28.04;64.76;100842.19;6318704;23;20001;-88
2023/08/19 10:10:39;;;;;;;1.38;1.27;;;;;;;28.08;62.86;100843.59;6312541;23;20632;-88
2023/08/19 10:13:11;;;;;;;0.77;0.77;;;;;;;28.13;63.17;100844.00;6340377;23;20459;-88
2023/08/19 10:15:43;;;;;;;4.93;1.92;;;;;;;28.22;63.88;100845.75;6337953;23;20013;-88
2023/08/19 10:18:21;;;;;;;1.63;0.83;;;;;;;28.32;62.78;100837.59;6311638;23;20021;-88
2023/08/19 10:20:55;;;;;;;1.23;1.00;;;;;;;28.31;63.29;100830.50;6310116;23;20017;-89
2023/08/19 10:23:27;;;;;;;0.95;0.95;;;;;;;28.25;63.49;100848.16;6335866;23;20085;-89
2023/08/19 10:25:58;;;;;;;2.93;1.20;;;;;;;28.24;63.14;100841.06;6314445;23;20084;-88
2023/08/19 10:28:29;;;;;;;2.10;1.33;;;;;;;28.32;64.34;100839.44;6320200;23;20005;-89
2023/08/19 10:31:13;;;;;;;0.50;0.50;;;;;;;28.40;64.28;100845.75;6311832;23;20010;-89
2023/08/19 10:33:46;;;;;;;1.75;1.27;;;;;;;28.40;64.13;100840.38;6307404;23;20097;-90
2023/08/19 10:36:20;;;;;;;;;;;;;;;28.39;63.79;100845.91;6370209;23;20012;-89
2023/08/19 10:38:57;;;;;;;6.82;0.70;;;;;;;28.39;63.89;100851.28;6310004;23;19908;-90
2023/08/19 10:41:35;;;;;;;0.40;0.40;;;;;;;28.29;64.70;100856.78;6332919;23;20009;-88
2023/08/19 10:44:07;;;;;;;0.88;0.65;;;;;;;28.34;64.20;100859.03;6310182;23;20009;-89
2023/08/19 10:46:39;;;;;;;0.40;0.40;;;;;;;28.25;63.81;100863.50;6311524;23;20025;-89
2023/08/19 10:49:19;;;;;;;0.50;0.50;;;;;;;28.37;64.58;100866.81;6311618;23;20017;-89
2023/08/19 10:51:57;;;;;;;3.40;1.00;;;;;;;28.36;64.36;100854.31;6343624;23;20032;-90
2023/08/19 10:54:31;;;;;;;1.85;1.75;;;;;;;28.40;64.55;100866.47;6321063;23;20352;-89
2023/08/19 10:57:11;;;;;;;1.45;1.17;;;;;;;28.39;64.35;100875.56;6320922;23;20029;-89
2023/08/19 10:59:43;;;;;;;0.70;0.70;;;;;;;28.45;64.78;100872.28;6320186;23;20025;-90
2023/08/19 11:02:14;;;;;;;;;;;;;;;28.48;64.54;100888.16;6320040;23;20447;-90
2023/08/19 11:04:49;;;;;;;0.52;0.52;;;;;;;28.58;64.25;100897.00;6319072;23;19971;-90
2023/08/19 11:07:20;;;;;;;0.40;0.40;;;;;;;28.53;63.97;100902.03;6318076;23;20017;-90
2023/08/19 11:09:54;;;;;;;0.32;0.32;;;;;;;28.61;64.29;100886.91;6318852;23;20041;-91
2023/08/19 11:12:29;;;;;;;0.68;0.65;;;;;;;28.66;64.27;100903.47;6339942;23;20133;-89
2023/08/19 11:15:00;;;;;;;0.30;0.30;;;;;;;28.69;64.92;100900.47;6316729;23;20006;-88
2023/08/19 11:17:32;;;;;;;0.60;0.60;;;;;;;28.61;65.03;100901.25;6315457;23;20025;-89
2023/08/19 11:20:10;;;;;;;1.15;1.10;;;;;;;28.71;64.80;100899.34;6315038;23;20399;-88
2023/08/19 11:22:42;;;;;;;0.47;0.40;;;;;;;28.75;64.19;100897.19;6315535;23;20092;-89
2023/08/19 11:25:13;;;;;;;1.25;1.15;;;;;;;28.65;64.46;100913.44;6338737;23;20526;-89
2023/08/19 11:27:44;;;;;;;0.38;0.38;;;;;;;28.63;64.25;100928.94;6342570;23;20521;-91
2023/08/19 11:30:15;;;;;;;1.48;0.55;;;;;;;28.66;64.01;100947.53;6313909;23;20083;-89
2023/08/19 11:32:46;;;;;;;0.57;0.57;;;;;;;28.68;64.58;100950.91;6315221;23;20009;-90
2023/08/19 11:35:17;;;;;;;0.52;0.52;;;;;;;28.71;65.22;100964.13;6340271;23;20626;-90
2023/08/19 11:37:47;;;;;;;0.60;0.60;;;;;;;28.87;64.82;100967.97;6341351;23;19997;-88
2023/08/19 11:40:17;;;;;;;1.45;1.35;;;;;;;28.76;64.83;100976.34;6315210;23;20117;-88
2023/08/19 11:42:48;;;;;;;0.35;0.35;;;;;;;28.81;65.50;100995.59;6316169;23;20060;-88
2023/08/19 11:45:21;;;;;;;0.55;0.55;;;;;;;28.71;65.00;100998.41;6316779;23;20311;-91
2023/08/19 11:47:52;;;;;;;0.77;0.77;;;;;;;28.69;65.30;101003.06;6358372;23;20017;-91